createdAt,value
2023-01-17T00:01:34.302Z,98461.97
2023-01-17T00:04:19.615Z,98465.38
2023-01-17T00:07:05.003Z,98468.84
2023-01-17T00:09:49.845Z,98478.41
2023-01-17T00:12:16.330Z,98484.38
2023-01-17T00:14:42.732Z,98482.75
2023-01-17T00:17:09.218Z,98485.50
2023-01-17T00:19:54.226Z,98482.00
2023-01-17T00:22:44.076Z,98487.13
2023-01-17T00:25:31.115Z,98494.84
2023-01-17T00:27:57.560Z,98495.88
2023-01-17T00:30:24.117Z,98493.28
2023-01-17T00:32:50.633Z,98506.97
2023-01-17T00:35:17.451Z,98507.91
2023-01-17T00:37:43.971Z,98510.47
2023-01-17T00:40:10.951Z,98520.13
2023-01-17T00:42:37.627Z,98524.63
2023-01-17T00:45:23.634Z,98533.53
2023-01-17T00:48:08.699Z,98547.50
2023-01-17T00:50:55.786Z,98555.03
2023-01-17T00:53:40.550Z,98560.72
2023-01-17T00:56:26.051Z,98563.75
2023-01-17T00:59:12.859Z,98567.41
2023-01-17T01:01:57.981Z,98567.47
2023-01-17T01:04:43.260Z,98565.88
2023-01-17T01:07:28.261Z,98564.97
2023-01-17T01:13:34.474Z,98556.09
2023-01-17T01:16:20.898Z,98560.22
2023-01-17T01:19:06.049Z,98579.97
2023-01-17T01:21:51.318Z,98587.66
2023-01-17T01:24:36.736Z,98588.84
2023-01-17T01:27:22.095Z,98584.78
2023-01-17T01:30:07.068Z,98590.59
2023-01-17T01:32:52.493Z,98600.94
2023-01-17T01:35:19.036Z,98602.69
2023-01-17T01:37:45.570Z,98598.53
2023-01-17T01:40:13.404Z,98597.00
2023-01-17T01:42:58.742Z,98602.38
2023-01-17T01:45:34.244Z,98612.00
2023-01-17T01:48:24.995Z,98608.03
2023-01-17T01:50:51.731Z,98606.53
2023-01-17T01:53:21.096Z,98612.13
2023-01-17T01:55:50.981Z,98618.34
2023-01-17T01:58:27.411Z,98622.88
2023-01-17T02:00:54.055Z,98626.47
2023-01-17T02:03:25.722Z,98631.66
2023-01-17T02:05:52.612Z,98641.13
2023-01-17T02:08:22.826Z,98650.56
2023-01-17T02:10:50.721Z,98653.13
2023-01-17T02:13:20.410Z,98656.44
2023-01-17T02:15:58.095Z,98675.16
2023-01-17T02:18:49.798Z,98687.31
2023-01-17T02:24:38.308Z,98690.16
2023-01-17T02:27:16.160Z,98686.72
2023-01-17T02:30:27.772Z,98704.78
2023-01-17T02:33:29.677Z,98689.56
2023-01-17T02:36:04.698Z,98684.53
2023-01-17T02:38:48.009Z,98685.56
2023-01-17T02:41:35.588Z,98696.09
2023-01-17T02:44:03.263Z,98699.56
2023-01-17T02:46:29.699Z,98693.69
2023-01-17T02:48:58.353Z,98696.09
2023-01-17T02:51:40.468Z,98701.31
2023-01-17T02:54:23.913Z,98700.63
2023-01-17T02:57:25.961Z,98701.63
2023-01-17T03:00:04.604Z,98706.84
2023-01-17T03:02:41.507Z,98707.84
2023-01-17T03:05:13.624Z,98710.22
2023-01-17T03:07:42.861Z,98712.13
2023-01-17T03:10:11.353Z,98704.53
2023-01-17T03:12:39.451Z,98711.38
2023-01-17T03:15:14.552Z,98710.72
2023-01-17T03:17:46.895Z,98713.19
2023-01-17T03:20:13.306Z,98719.97
2023-01-17T03:22:39.805Z,98717.34
2023-01-17T03:25:06.654Z,98728.53
2023-01-17T03:27:33.613Z,98727.59
2023-01-17T03:30:00.159Z,98737.94
2023-01-17T03:32:26.584Z,98731.09
2023-01-17T03:34:53.048Z,98739.63
2023-01-17T03:37:19.501Z,98745.56
2023-01-17T03:39:45.935Z,98741.50
2023-01-17T03:42:12.456Z,98742.34
2023-01-17T03:44:38.955Z,98752.75
2023-01-17T03:47:05.401Z,98744.22
2023-01-17T03:49:31.795Z,98749.53
2023-01-17T03:51:58.282Z,98746.59
2023-01-17T03:54:24.745Z,98744.25
2023-01-17T03:56:51.175Z,98756.41
2023-01-17T03:59:17.590Z,98748.03
2023-01-17T04:01:44.042Z,98750.69
2023-01-17T04:04:10.547Z,98754.38
2023-01-17T04:06:36.961Z,98752.09
2023-01-17T04:09:03.527Z,98758.97
2023-01-17T04:11:30.067Z,98761.91
2023-01-17T04:13:56.535Z,98767.28
2023-01-17T04:16:28.663Z,98776.72
2023-01-17T04:18:55.545Z,98775.19
2023-01-17T04:21:22.104Z,98787.41
2023-01-17T04:23:48.627Z,98788.47
2023-01-17T04:26:15.300Z,98787.69
2023-01-17T04:28:41.872Z,98791.03
2023-01-17T04:31:14.310Z,98782.47
2023-01-17T04:33:40.794Z,98782.56
2023-01-17T04:36:07.679Z,98779.22
2023-01-17T04:38:35.151Z,98781.06
2023-01-17T04:41:01.708Z,98777.66
2023-01-17T04:43:28.114Z,98770.72
2023-01-17T04:45:58.601Z,98763.13
2023-01-17T04:48:25.421Z,98772.53
2023-01-17T04:50:51.822Z,98768.38
2023-01-17T04:53:18.253Z,98770.03
2023-01-17T04:55:46.198Z,98767.41
2023-01-17T04:58:12.663Z,98764.84
2023-01-17T05:00:39.117Z,98763.84
2023-01-17T05:03:05.549Z,98772.31
2023-01-17T05:05:31.962Z,98774.06
2023-01-17T05:07:58.825Z,98773.22
2023-01-17T05:10:25.969Z,98774.97
2023-01-17T05:12:56.856Z,98773.44
2023-01-17T05:15:24.360Z,98783.97
2023-01-17T05:17:52.275Z,98785.84
2023-01-17T05:20:20.659Z,98786.91
2023-01-17T05:22:55.493Z,98794.00
2023-01-17T05:25:27.163Z,98793.22
2023-01-17T05:27:53.775Z,98797.66
2023-01-17T05:30:22.291Z,98798.69
2023-01-17T05:32:53.823Z,98788.59
2023-01-17T05:35:23.836Z,98792.91
2023-01-17T05:37:51.355Z,98788.75
2023-01-17T05:40:24.507Z,98800.03
2023-01-17T05:42:52.997Z,98793.22
2023-01-17T05:45:21.010Z,98797.53
2023-01-17T05:47:49.687Z,98803.69
2023-01-17T05:50:42.249Z,98804.59
2023-01-17T05:53:14.503Z,98808.13
2023-01-17T05:55:41.729Z,98816.72
2023-01-17T05:58:13.325Z,98820.09
2023-01-17T06:00:39.863Z,98829.44
2023-01-17T06:03:06.312Z,98825.13
2023-01-17T06:05:32.812Z,98828.53
2023-01-17T06:07:59.555Z,98823.41
2023-01-17T06:10:26.647Z,98827.66
2023-01-17T06:13:22.338Z,98831.03
2023-01-17T06:15:49.068Z,98841.19
2023-01-17T06:18:17.335Z,98831.78
2023-01-17T06:20:43.981Z,98844.44
2023-01-17T06:23:13.261Z,98843.44
2023-01-17T06:25:44.929Z,98844.88
2023-01-17T06:28:14.359Z,98835.31
2023-01-17T06:30:41.021Z,98848.81
2023-01-17T06:33:07.514Z,98849.56
2023-01-17T06:35:33.984Z,98834.13
2023-01-17T06:38:00.665Z,98837.53
2023-01-17T06:40:28.652Z,98835.13
2023-01-17T06:43:00.098Z,98831.78
2023-01-17T06:45:26.620Z,98838.72
2023-01-17T06:47:53.028Z,98840.44
2023-01-17T06:50:19.521Z,98834.56
2023-01-17T06:52:57.793Z,98844.13
2023-01-17T06:55:24.685Z,98839.19
2023-01-17T06:57:51.170Z,98847.09
2023-01-17T07:00:17.958Z,98848.06
2023-01-17T07:02:47.808Z,98853.38
2023-01-17T07:05:16.410Z,98855.19
2023-01-17T07:07:43.655Z,98850.13
2023-01-17T07:10:15.538Z,98850.28
2023-01-17T07:12:42.320Z,98854.63
2023-01-17T07:15:09.561Z,98853.88
2023-01-17T07:17:36.002Z,98854.84
2023-01-17T07:20:02.663Z,98853.22
2023-01-17T07:22:29.335Z,98862.66
2023-01-17T07:24:58.567Z,98859.31
2023-01-17T07:27:26.143Z,98860.28
2023-01-17T07:29:54.224Z,98859.53
2023-01-17T07:32:20.877Z,98862.16
2023-01-17T07:34:47.466Z,98863.03
2023-01-17T07:37:15.343Z,98867.41
2023-01-17T07:39:42.147Z,98859.78
2023-01-17T07:42:09.277Z,98864.16
2023-01-17T07:44:35.849Z,98865.03
2023-01-17T07:47:02.519Z,98861.72
2023-01-17T07:49:28.992Z,98864.28
2023-01-17T07:51:55.573Z,98873.66
2023-01-17T07:54:22.108Z,98877.13
2023-01-17T07:56:48.992Z,98867.81
2023-01-17T07:59:15.558Z,98869.59
2023-01-17T08:01:42.096Z,98870.41
2023-01-17T08:04:09.387Z,98876.44
2023-01-17T08:06:39.430Z,98877.25
2023-01-17T08:09:05.894Z,98872.13
2023-01-17T08:11:32.300Z,98871.41
2023-01-17T08:13:59.745Z,98872.13
2023-01-17T08:16:28.576Z,98878.03
2023-01-17T08:18:56.066Z,98883.16
2023-01-17T08:21:23.396Z,98879.78
2023-01-17T08:23:52.897Z,98882.25
2023-01-17T08:26:23.922Z,98891.56
2023-01-17T08:29:00.326Z,98884.75
2023-01-17T08:31:31.925Z,98886.47
2023-01-17T08:33:58.528Z,98892.44
2023-01-17T08:36:25.858Z,98896.66
2023-01-17T08:38:52.906Z,98897.56
2023-01-17T08:41:20.856Z,98894.09
2023-01-17T08:43:48.380Z,98892.34
2023-01-17T08:46:14.945Z,98897.44
2023-01-17T08:48:41.519Z,98896.66
2023-01-17T08:51:07.993Z,98894.13
2023-01-17T08:53:34.508Z,98900.13
2023-01-17T08:56:02.277Z,98903.50
2023-01-17T08:58:30.845Z,98905.16
2023-01-17T09:01:05.485Z,98912.00
2023-01-17T09:03:33.946Z,98911.22
2023-01-17T09:06:12.563Z,98914.69
2023-01-17T09:08:39.773Z,98921.47
2023-01-17T09:11:11.607Z,98919.69
2023-01-17T09:13:39.114Z,98920.38
2023-01-17T09:16:06.700Z,98921.22
2023-01-17T09:18:34.278Z,98920.31
2023-01-17T09:21:18.774Z,98927.09
2023-01-17T09:23:45.663Z,98926.28
2023-01-17T09:26:21.502Z,98933.97
2023-01-17T09:28:48.994Z,98929.59
2023-01-17T09:31:17.479Z,98932.03
2023-01-17T09:33:44.532Z,98937.09
2023-01-17T09:36:11.588Z,98937.84
2023-01-17T09:38:38.716Z,98938.66
2023-01-17T09:41:27.753Z,98936.88
2023-01-17T09:43:56.180Z,98942.84
2023-01-17T09:46:27.519Z,98944.47
2023-01-17T09:49:19.392Z,98943.53
2023-01-17T09:51:46.228Z,98952.00
2023-01-17T09:54:26.726Z,98956.16
2023-01-17T09:57:18.050Z,98960.16
2023-01-17T10:00:13.027Z,98954.91
2023-01-17T10:03:01.008Z,98958.25
2023-01-17T10:05:33.446Z,98961.56
2023-01-17T10:08:38.759Z,98962.25
2023-01-17T10:11:43.428Z,98965.59
2023-01-17T10:14:37.844Z,98961.16
2023-01-17T10:17:39.992Z,98964.50
2023-01-17T10:20:42.941Z,98965.25
2023-01-17T10:23:45.356Z,98966.03
2023-01-17T10:26:17.983Z,98969.19
2023-01-17T10:28:51.279Z,98963.13
2023-01-17T10:31:26.762Z,98956.13
2023-01-17T10:34:03.687Z,98957.66
2023-01-17T10:36:38.023Z,98960.16
2023-01-17T10:39:25.944Z,98956.50
2023-01-17T10:42:00.808Z,98965.84
2023-01-17T10:44:43.422Z,98968.28
2023-01-17T10:47:09.751Z,98968.28
2023-01-17T10:49:40.153Z,98965.56
2023-01-17T10:52:19.970Z,98967.19
2023-01-17T10:54:56.637Z,98970.47
2023-01-17T10:57:25.877Z,98973.00
2023-01-17T10:59:57.723Z,98976.25
2023-01-17T11:02:35.780Z,98973.34
2023-01-17T11:05:14.392Z,98976.50
2023-01-17T11:07:57.193Z,98976.38
2023-01-17T11:10:51.026Z,98978.09
2023-01-17T11:13:25.496Z,98975.53
2023-01-17T11:15:57.733Z,98975.47
2023-01-17T11:18:29.103Z,98978.88
2023-01-17T11:21:21.365Z,98973.06
2023-01-17T11:23:50.916Z,98968.06
2023-01-17T11:26:29.467Z,98970.53
2023-01-17T11:29:17.179Z,98969.03
2023-01-17T11:31:43.620Z,98963.13
2023-01-17T11:34:19.953Z,98965.50
2023-01-17T11:36:46.418Z,98960.00
2023-01-17T11:39:27.651Z,98958.97
2023-01-17T11:41:54.526Z,98961.75
2023-01-17T11:44:35.924Z,98972.56
2023-01-17T11:47:09.886Z,98962.16
2023-01-17T11:49:36.448Z,98965.41
2023-01-17T11:52:33.424Z,98962.91
2023-01-17T11:55:00.283Z,98967.97
2023-01-17T11:57:32.809Z,98962.56
2023-01-17T12:00:29.180Z,98955.34
2023-01-17T12:03:16.049Z,98956.66
2023-01-17T12:06:01.245Z,98957.88
2023-01-17T12:08:42.453Z,98961.78
2023-01-17T12:12:07.370Z,98954.63
2023-01-17T12:14:42.693Z,98957.59
2023-01-17T12:17:15.381Z,98952.22
2023-01-17T12:20:12.617Z,98954.34
2023-01-17T12:23:15.501Z,98951.53
2023-01-17T12:26:00.963Z,98937.47
2023-01-17T12:28:45.352Z,98937.31
2023-01-17T12:31:19.543Z,98939.88
2023-01-17T12:33:57.828Z,98940.66
2023-01-17T12:36:33.071Z,98936.19
2023-01-17T12:39:05.307Z,98925.66
2023-01-17T12:41:37.440Z,98924.78
2023-01-17T12:44:04.266Z,98926.28
2023-01-17T12:46:38.710Z,98926.19
2023-01-17T12:49:29.988Z,98915.84
2023-01-17T12:52:03.327Z,98926.78
2023-01-17T12:54:36.764Z,98919.09
2023-01-17T12:57:12.633Z,98926.78
2023-01-17T13:00:01.344Z,98930.13
2023-01-17T13:03:09.563Z,98928.22
2023-01-17T13:05:41.807Z,98935.84
2023-01-17T13:08:20.367Z,98930.66
2023-01-17T13:10:54.999Z,98927.00
2023-01-17T13:13:25.656Z,98927.00
2023-01-17T13:15:57.248Z,98936.34
2023-01-17T13:18:29.747Z,98928.50
2023-01-17T13:21:26.063Z,98930.91
2023-01-17T13:24:06.560Z,98935.13
2023-01-17T13:27:01.740Z,98926.91
2023-01-17T13:29:40.389Z,98924.50
2023-01-17T13:32:25.711Z,98935.78
2023-01-17T13:35:10.725Z,98935.84
2023-01-17T13:38:16.412Z,98943.41
2023-01-17T13:40:50.864Z,98928.97
2023-01-17T13:43:20.302Z,98929.78
2023-01-17T13:45:55.826Z,98934.94
2023-01-17T13:48:22.710Z,98932.34
2023-01-17T13:50:55.576Z,98936.81
2023-01-17T13:53:34.384Z,98936.91
2023-01-17T13:56:19.032Z,98942.06
2023-01-17T13:58:50.087Z,98943.13
2023-01-17T14:01:22.838Z,98945.75
2023-01-17T14:03:49.304Z,98950.31
2023-01-17T14:06:41.314Z,98952.78
2023-01-17T14:09:07.658Z,98956.34
2023-01-17T14:11:52.329Z,98964.81
2023-01-17T14:14:43.933Z,98961.25
2023-01-17T14:17:16.621Z,98960.59
2023-01-17T14:19:50.755Z,98969.28
2023-01-17T14:22:20.248Z,98974.47
2023-01-17T14:25:09.809Z,98977.91
2023-01-17T14:27:42.387Z,98974.66
2023-01-17T14:30:18.319Z,98964.28
2023-01-17T14:33:08.557Z,98967.84
2023-01-17T14:35:39.297Z,98967.97
2023-01-17T14:38:24.008Z,98966.34
2023-01-17T14:40:54.585Z,98963.91
2023-01-17T14:43:23.774Z,98959.69
2023-01-17T14:45:57.431Z,98967.97
2023-01-17T14:48:24.283Z,98966.34
2023-01-17T14:50:54.191Z,98962.94
2023-01-17T14:53:27.949Z,98970.69
2023-01-17T14:55:58.764Z,98967.47
2023-01-17T14:58:26.826Z,98967.75
2023-01-17T15:01:02.926Z,98973.22
2023-01-17T15:03:33.759Z,98973.50
2023-01-17T15:06:11.011Z,98980.69
2023-01-17T15:08:37.662Z,98975.84
2023-01-17T15:11:10.953Z,98984.59
2023-01-17T15:13:44.705Z,98982.31
2023-01-17T15:16:26.709Z,98982.41
2023-01-17T15:18:55.110Z,98978.31
2023-01-17T15:21:24.971Z,98987.88
2023-01-17T15:23:55.280Z,98989.84
2023-01-17T15:26:25.365Z,98996.78
2023-01-17T15:29:04.257Z,99005.53
2023-01-17T15:31:40.718Z,99000.69
2023-01-17T15:34:09.454Z,99001.72
2023-01-17T15:36:35.961Z,99002.78
2023-01-17T15:39:06.260Z,98996.19
2023-01-17T15:41:37.902Z,98994.59
2023-01-17T15:44:05.457Z,99000.75
2023-01-17T15:46:45.608Z,99003.56
2023-01-17T15:49:21.058Z,98998.69
2023-01-17T15:51:53.642Z,98993.75
2023-01-17T15:54:28.806Z,98994.81
2023-01-17T15:57:05.324Z,98998.41
2023-01-17T16:00:07.671Z,99001.09
2023-01-17T16:02:43.417Z,99002.16
2023-01-17T16:05:22.619Z,98998.94
2023-01-17T16:08:09.652Z,98993.22
2023-01-17T16:10:37.998Z,98995.94
2023-01-17T16:13:06.504Z,98997.00
2023-01-17T16:15:35.301Z,98997.25
2023-01-17T16:18:03.503Z,98996.63
2023-01-17T16:20:44.479Z,99002.84
2023-01-17T16:23:10.977Z,99001.38
2023-01-17T16:25:38.386Z,99004.09
2023-01-17T16:28:05.495Z,99006.78
2023-01-17T16:30:32.803Z,99005.28
2023-01-17T16:32:59.465Z,99008.69
2023-01-17T16:35:29.297Z,99016.50
2023-01-17T16:38:02.259Z,99011.50
2023-01-17T16:40:34.116Z,99015.88
2023-01-17T16:43:00.900Z,99019.38
2023-01-17T16:45:27.562Z,99020.28
2023-01-17T16:47:54.844Z,99020.41
2023-01-17T16:50:25.258Z,99023.97
2023-01-17T16:52:52.941Z,99026.72
2023-01-17T16:55:22.611Z,99031.09
2023-01-17T16:57:50.440Z,99028.72
2023-01-17T17:00:18.073Z,99027.09
2023-01-17T17:02:44.648Z,99032.41
2023-01-17T17:05:11.452Z,99040.09
2023-01-17T17:07:46.256Z,99038.56
2023-01-17T17:10:15.138Z,99041.16
2023-01-17T17:12:42.126Z,99053.19
2023-01-17T17:15:09.937Z,99056.75
2023-01-17T17:17:41.352Z,99057.72
2023-01-17T17:20:11.834Z,99049.34
2023-01-17T17:22:39.505Z,99060.44
2023-01-17T17:25:07.319Z,99057.13
2023-01-17T17:27:33.773Z,99064.03
2023-01-17T17:30:00.351Z,99064.97
2023-01-17T17:32:26.884Z,99070.16
2023-01-17T17:34:53.446Z,99068.53
2023-01-17T17:37:21.382Z,99075.38
2023-01-17T17:39:47.809Z,99072.03
2023-01-17T17:42:15.525Z,99074.72
2023-01-17T17:44:42.048Z,99079.91
2023-01-17T17:47:09.254Z,99080.81
2023-01-17T17:49:35.702Z,99091.88
2023-01-17T17:52:06.863Z,99091.03
2023-01-17T17:54:33.862Z,99095.25
2023-01-17T17:57:00.514Z,99099.53
2023-01-17T17:59:27.169Z,99103.84
2023-01-17T18:01:53.992Z,99105.41
2023-01-17T18:04:21.530Z,99106.28
2023-01-17T18:06:48.016Z,99109.69
2023-01-17T18:09:14.773Z,99115.66
2023-01-17T18:11:43.188Z,99110.53
2023-01-17T18:14:14.503Z,99116.53
2023-01-17T18:16:43.618Z,99123.47
2023-01-17T18:19:16.035Z,99132.06
2023-01-17T18:21:43.531Z,99125.34
2023-01-17T18:24:12.938Z,99131.41
2023-01-17T18:26:44.777Z,99133.22
2023-01-17T18:29:14.954Z,99143.53
2023-01-17T18:31:43.506Z,99148.69
2023-01-17T18:34:13.190Z,99158.91
2023-01-17T18:36:40.718Z,99161.53
2023-01-17T18:39:14.367Z,99169.16
2023-01-17T18:41:41.042Z,99161.44
2023-01-17T18:44:08.299Z,99167.31
2023-01-17T18:46:35.824Z,99168.16
2023-01-17T18:49:02.989Z,99164.72
2023-01-17T18:51:32.251Z,99169.81
2023-01-17T18:54:02.704Z,99169.81
2023-01-17T18:56:31.092Z,99176.66
2023-01-17T18:58:57.948Z,99170.75
2023-01-17T19:01:35.948Z,99178.53
2023-01-17T19:04:04.927Z,99181.22
2023-01-17T19:06:37.681Z,99177.94
2023-01-17T19:09:07.162Z,99182.22
2023-01-17T19:11:34.343Z,99183.94
2023-01-17T19:14:00.940Z,99186.59
2023-01-17T19:16:32.274Z,99187.50
2023-01-17T19:19:03.024Z,99193.53
2023-01-17T19:21:30.199Z,99187.63
2023-01-17T19:23:58.963Z,99194.47
2023-01-17T19:26:27.440Z,99193.72
2023-01-17T19:28:56.521Z,99195.41
2023-01-17T19:31:26.035Z,99190.31
2023-01-17T19:33:57.252Z,99198.94
2023-01-17T19:36:26.756Z,99203.19
2023-01-17T19:39:04.038Z,99197.31
2023-01-17T19:41:32.261Z,99206.63
2023-01-17T19:44:09.634Z,99204.97
2023-01-17T19:46:36.959Z,99207.56
2023-01-17T19:49:05.702Z,99205.09
2023-01-17T19:51:32.329Z,99217.75
2023-01-17T19:54:01.175Z,99216.94
2023-01-17T19:56:28.844Z,99209.16
2023-01-17T19:58:57.097Z,99215.13
2023-01-17T20:01:28.508Z,99214.31
2023-01-17T20:03:57.748Z,99213.47
2023-01-17T20:06:27.581Z,99211.81
2023-01-17T20:08:54.403Z,99221.16
2023-01-17T20:11:22.797Z,99222.91
2023-01-17T20:13:53.892Z,99219.63
2023-01-17T20:16:21.114Z,99212.03
2023-01-17T20:18:47.771Z,99213.75
2023-01-17T20:21:32.809Z,99210.41
2023-01-17T20:24:03.011Z,99217.22
2023-01-17T20:26:35.694Z,99220.72
2023-01-17T20:29:10.001Z,99220.78
2023-01-17T20:31:38.394Z,99218.25
2023-01-17T20:34:06.515Z,99215.78
2023-01-17T20:36:33.160Z,99214.97
2023-01-17T20:39:00.889Z,99215.03
2023-01-17T20:41:31.879Z,99221.03
2023-01-17T20:44:00.681Z,99218.47
2023-01-17T20:46:35.274Z,99221.03
2023-01-17T20:49:05.423Z,99218.59
2023-01-17T20:51:34.409Z,99220.34
2023-01-17T20:54:03.371Z,99223.81
2023-01-17T20:56:34.459Z,99234.03
2023-01-17T20:59:03.724Z,99225.50
2023-01-17T21:01:30.442Z,99230.75
2023-01-17T21:03:57.055Z,99221.34
2023-01-17T21:06:24.649Z,99219.72
2023-01-17T21:08:52.136Z,99223.16
2023-01-17T21:11:24.546Z,99227.47
2023-01-17T21:13:51.802Z,99233.47
2023-01-17T21:16:21.063Z,99231.78
2023-01-17T21:18:48.641Z,99236.06
2023-01-17T21:21:21.968Z,99239.47
2023-01-17T21:23:49.915Z,99241.19
2023-01-17T21:26:18.074Z,99243.81
2023-01-17T21:28:46.337Z,99242.97
2023-01-17T21:31:27.426Z,99238.69
2023-01-17T21:34:00.139Z,99242.97
2023-01-17T21:36:29.205Z,99243.84
2023-01-17T21:38:57.721Z,99247.19
2023-01-17T21:41:28.393Z,99241.28
2023-01-17T21:44:00.564Z,99237.91
2023-01-17T21:46:28.197Z,99241.28
2023-01-17T21:48:56.686Z,99237.06
2023-01-17T21:51:24.352Z,99235.44
2023-01-17T21:53:50.892Z,99236.25
2023-01-17T21:56:35.869Z,99241.44
2023-01-17T21:59:02.355Z,99237.25
2023-01-17T22:01:33.145Z,99238.09
2023-01-17T22:04:02.837Z,99244.97
2023-01-17T22:06:39.018Z,99241.69
2023-01-17T22:09:05.887Z,99239.22
2023-01-17T22:11:32.579Z,99246.09
2023-01-17T22:13:59.460Z,99247.06
2023-01-17T22:16:26.158Z,99248.84
2023-01-17T22:18:52.924Z,99254.00
2023-01-17T22:21:22.555Z,99254.09
2023-01-17T22:23:52.194Z,99255.00
2023-01-17T22:26:20.188Z,99258.50
2023-01-17T22:28:47.041Z,99258.47
2023-01-17T22:31:14.855Z,99269.56
2023-01-17T22:33:43.365Z,99267.84
2023-01-17T22:36:13.661Z,99266.16
2023-01-17T22:38:41.522Z,99267.88
2023-01-17T22:41:20.206Z,99267.97
2023-01-17T22:43:49.756Z,99272.31
2023-01-17T22:46:18.800Z,99272.31
2023-01-17T22:48:45.638Z,99271.56
2023-01-17T22:51:14.937Z,99271.59
2023-01-17T22:54:00.830Z,99277.59
2023-01-17T22:56:30.955Z,99282.69
2023-01-17T22:59:00.570Z,99280.16
2023-01-17T23:01:29.574Z,99276.00
2023-01-17T23:03:58.688Z,99275.13
2023-01-17T23:06:30.362Z,99269.22
2023-01-17T23:08:59.999Z,99271.75
2023-01-17T23:11:43.905Z,99270.16
2023-01-17T23:14:30.593Z,99275.38
2023-01-17T23:17:20.820Z,99273.66
2023-01-17T23:19:52.503Z,99277.16
2023-01-17T23:22:21.169Z,99272.09
2023-01-17T23:25:02.612Z,99274.69
2023-01-17T23:27:52.811Z,99270.44
2023-01-17T23:30:20.667Z,99277.28
2023-01-17T23:32:48.607Z,99269.69
2023-01-17T23:35:15.947Z,99269.69
2023-01-17T23:38:01.203Z,99274.88
2023-01-17T23:40:28.255Z,99276.59
2023-01-17T23:43:13.356Z,99275.75
2023-01-17T23:45:39.846Z,99279.13
2023-01-17T23:48:09.635Z,99273.22
2023-01-17T23:50:38.616Z,99279.16
2023-01-17T23:53:08.745Z,99286.88
2023-01-17T23:55:37.278Z,99280.19
2023-01-17T23:58:05.282Z,99291.25
